sensor_id;sensor_type;location;lat;lon;timestamp;temperature;humidity
78448;SHT31;67742;51.972;5.682;2024-02-26T00:00:31;8.2;65.4
78448;SHT31;67742;51.972;5.682;2024-02-26T00:03:01;8.2;65.6
78448;SHT31;67742;51.972;5.682;2024-02-26T00:05:30;8.1;65.6
78448;SHT31;67742;51.972;5.682;2024-02-26T00:07:59;8.1;65.5
78448;SHT31;67742;51.972;5.682;2024-02-26T00:10:28;8.1;65.6
78448;SHT31;67742;51.972;5.682;2024-02-26T00:12:56;8.1;65.4
78448;SHT31;67742;51.972;5.682;2024-02-26T00:15:26;8.1;65.5
78448;SHT31;67742;51.972;5.682;2024-02-26T00:17:55;8.1;65.4
78448;SHT31;67742;51.972;5.682;2024-02-26T00:20:23;8.1;65.3
78448;SHT31;67742;51.972;5.682;2024-02-26T00:22:52;8.1;65.2
78448;SHT31;67742;51.972;5.682;2024-02-26T00:25:21;8.1;65.4
78448;SHT31;67742;51.972;5.682;2024-02-26T00:27:50;8.1;65.2
78448;SHT31;67742;51.972;5.682;2024-02-26T00:30:18;8.1;65.2
78448;SHT31;67742;51.972;5.682;2024-02-26T00:32:47;8.1;65.2
78448;SHT31;67742;51.972;5.682;2024-02-26T00:35:15;8.1;65.0
78448;SHT31;67742;51.972;5.682;2024-02-26T00:37:47;8.1;65.2
78448;SHT31;67742;51.972;5.682;2024-02-26T00:40:15;8.1;65.2
78448;SHT31;67742;51.972;5.682;2024-02-26T00:42:44;8.1;65.2
78448;SHT31;67742;51.972;5.682;2024-02-26T00:45:14;8.1;65.1
78448;SHT31;67742;51.972;5.682;2024-02-26T00:47:43;8.1;65.2
78448;SHT31;67742;51.972;5.682;2024-02-26T00:50:14;8.1;65.2
78448;SHT31;67742;51.972;5.682;2024-02-26T00:52:43;8.1;65.2
78448;SHT31;67742;51.972;5.682;2024-02-26T00:55:11;8.1;65.3
78448;SHT31;67742;51.972;5.682;2024-02-26T00:57:40;8.1;65.3
78448;SHT31;67742;51.972;5.682;2024-02-26T01:00:10;8.1;65.2
78448;SHT31;67742;51.972;5.682;2024-02-26T01:02:39;8.1;65.3
78448;SHT31;67742;51.972;5.682;2024-02-26T01:05:09;8.1;65.1
78448;SHT31;67742;51.972;5.682;2024-02-26T01:07:38;8.1;65.1
78448;SHT31;67742;51.972;5.682;2024-02-26T01:10:08;8.1;65.0
78448;SHT31;67742;51.972;5.682;2024-02-26T01:12:36;8.1;65.1
78448;SHT31;67742;51.972;5.682;2024-02-26T01:15:06;8.1;64.9
78448;SHT31;67742;51.972;5.682;2024-02-26T01:17:35;8.1;65.0
78448;SHT31;67742;51.972;5.682;2024-02-26T01:20:06;8.1;64.9
78448;SHT31;67742;51.972;5.682;2024-02-26T01:22:35;8.1;64.9
78448;SHT31;67742;51.972;5.682;2024-02-26T01:25:04;8.1;64.9
78448;SHT31;67742;51.972;5.682;2024-02-26T01:27:33;8.1;65.0
78448;SHT31;67742;51.972;5.682;2024-02-26T01:30:02;8.2;65.1
78448;SHT31;67742;51.972;5.682;2024-02-26T01:32:32;8.2;64.9
78448;SHT31;67742;51.972;5.682;2024-02-26T01:35:02;8.2;64.9
78448;SHT31;67742;51.972;5.682;2024-02-26T01:37:31;8.2;64.8
78448;SHT31;67742;51.972;5.682;2024-02-26T01:40:00;8.2;64.7
78448;SHT31;67742;51.972;5.682;2024-02-26T01:42:30;8.3;64.6
78448;SHT31;67742;51.972;5.682;2024-02-26T01:44:59;8.3;64.3
78448;SHT31;67742;51.972;5.682;2024-02-26T01:47:28;8.3;64.1
78448;SHT31;67742;51.972;5.682;2024-02-26T01:49:57;8.3;64.1
78448;SHT31;67742;51.972;5.682;2024-02-26T01:52:26;8.3;64.2
78448;SHT31;67742;51.972;5.682;2024-02-26T01:54:57;8.3;64.3
78448;SHT31;67742;51.972;5.682;2024-02-26T01:57:28;8.2;64.4
78448;SHT31;67742;51.972;5.682;2024-02-26T01:59:57;8.3;64.6
78448;SHT31;67742;51.972;5.682;2024-02-26T02:04:59;8.3;64.3
78448;SHT31;67742;51.972;5.682;2024-02-26T02:07:29;8.3;64.6
78448;SHT31;67742;51.972;5.682;2024-02-26T02:09:59;8.3;64.7
78448;SHT31;67742;51.972;5.682;2024-02-26T02:12:29;8.3;64.7
78448;SHT31;67742;51.972;5.682;2024-02-26T02:15:00;8.3;64.7
78448;SHT31;67742;51.972;5.682;2024-02-26T02:17:30;8.3;64.7
78448;SHT31;67742;51.972;5.682;2024-02-26T02:19:58;8.3;64.7
78448;SHT31;67742;51.972;5.682;2024-02-26T02:22:27;8.3;64.3
78448;SHT31;67742;51.972;5.682;2024-02-26T02:25:00;8.3;64.3
78448;SHT31;67742;51.972;5.682;2024-02-26T02:27:30;8.3;64.0
78448;SHT31;67742;51.972;5.682;2024-02-26T02:29:59;8.3;64.5
78448;SHT31;67742;51.972;5.682;2024-02-26T02:32:29;8.3;64.1
78448;SHT31;67742;51.972;5.682;2024-02-26T02:35:00;8.3;64.3
78448;SHT31;67742;51.972;5.682;2024-02-26T02:37:30;8.3;64.5
78448;SHT31;67742;51.972;5.682;2024-02-26T02:39:58;8.3;64.4
78448;SHT31;67742;51.972;5.682;2024-02-26T02:42:27;8.3;64.4
78448;SHT31;67742;51.972;5.682;2024-02-26T02:44:55;8.3;64.1
78448;SHT31;67742;51.972;5.682;2024-02-26T02:47:26;8.3;64.3
78448;SHT31;67742;51.972;5.682;2024-02-26T02:49:55;8.3;64.3
78448;SHT31;67742;51.972;5.682;2024-02-26T02:52:23;8.3;64.4
78448;SHT31;67742;51.972;5.682;2024-02-26T02:54:52;8.3;64.7
78448;SHT31;67742;51.972;5.682;2024-02-26T02:57:21;8.3;64.6
78448;SHT31;67742;51.972;5.682;2024-02-26T02:59:49;8.3;64.8
78448;SHT31;67742;51.972;5.682;2024-02-26T03:02:17;8.3;64.8
78448;SHT31;67742;51.972;5.682;2024-02-26T03:04:46;8.3;64.8
78448;SHT31;67742;51.972;5.682;2024-02-26T03:07:14;8.3;64.8
78448;SHT31;67742;51.972;5.682;2024-02-26T03:09:42;8.3;64.9
78448;SHT31;67742;51.972;5.682;2024-02-26T03:12:11;8.3;64.7
78448;SHT31;67742;51.972;5.682;2024-02-26T03:14:40;8.3;64.6
78448;SHT31;67742;51.972;5.682;2024-02-26T03:17:08;8.3;64.7
78448;SHT31;67742;51.972;5.682;2024-02-26T03:19:38;8.3;64.6
78448;SHT31;67742;51.972;5.682;2024-02-26T03:22:07;8.3;64.5
78448;SHT31;67742;51.972;5.682;2024-02-26T03:24:35;8.3;64.5
78448;SHT31;67742;51.972;5.682;2024-02-26T03:27:04;8.3;64.5
78448;SHT31;67742;51.972;5.682;2024-02-26T03:29:35;8.3;64.7
78448;SHT31;67742;51.972;5.682;2024-02-26T03:32:06;8.3;64.7
78448;SHT31;67742;51.972;5.682;2024-02-26T03:34:35;8.3;64.5
78448;SHT31;67742;51.972;5.682;2024-02-26T03:37:05;8.3;64.6
78448;SHT31;67742;51.972;5.682;2024-02-26T03:39:36;8.3;64.3
78448;SHT31;67742;51.972;5.682;2024-02-26T03:42:06;8.3;64.3
78448;SHT31;67742;51.972;5.682;2024-02-26T03:44:34;8.3;64.3
78448;SHT31;67742;51.972;5.682;2024-02-26T03:47:03;8.3;64.0
78448;SHT31;67742;51.972;5.682;2024-02-26T03:49:32;8.3;64.2
78448;SHT31;67742;51.972;5.682;2024-02-26T03:52:00;8.3;63.8
78448;SHT31;67742;51.972;5.682;2024-02-26T03:54:29;8.3;63.7
78448;SHT31;67742;51.972;5.682;2024-02-26T03:56:57;8.3;63.9
78448;SHT31;67742;51.972;5.682;2024-02-26T03:59:25;8.3;63.8
78448;SHT31;67742;51.972;5.682;2024-02-26T04:01:54;8.3;63.9
78448;SHT31;67742;51.972;5.682;2024-02-26T04:04:22;8.3;64.1
78448;SHT31;67742;51.972;5.682;2024-02-26T04:06:53;8.3;64.2
78448;SHT31;67742;51.972;5.682;2024-02-26T04:09:21;8.3;64.0
78448;SHT31;67742;51.972;5.682;2024-02-26T04:11:49;8.3;64.1
78448;SHT31;67742;51.972;5.682;2024-02-26T04:14:18;8.3;64.0
78448;SHT31;67742;51.972;5.682;2024-02-26T04:16:46;8.4;64.1
78448;SHT31;67742;51.972;5.682;2024-02-26T04:19:18;8.4;64.2
78448;SHT31;67742;51.972;5.682;2024-02-26T04:21:46;8.4;64.1
78448;SHT31;67742;51.972;5.682;2024-02-26T04:24:17;8.4;63.9
78448;SHT31;67742;51.972;5.682;2024-02-26T04:26:45;8.4;64.0
78448;SHT31;67742;51.972;5.682;2024-02-26T04:29:16;8.4;63.6
78448;SHT31;67742;51.972;5.682;2024-02-26T04:31:44;8.4;63.8
78448;SHT31;67742;51.972;5.682;2024-02-26T04:34:15;8.4;64.1
78448;SHT31;67742;51.972;5.682;2024-02-26T04:36:44;8.4;64.0
78448;SHT31;67742;51.972;5.682;2024-02-26T04:39:14;8.4;63.9
78448;SHT31;67742;51.972;5.682;2024-02-26T04:41:43;8.4;64.3
78448;SHT31;67742;51.972;5.682;2024-02-26T04:44:11;8.4;64.0
78448;SHT31;67742;51.972;5.682;2024-02-26T04:46:40;8.4;63.7
78448;SHT31;67742;51.972;5.682;2024-02-26T04:49:08;8.4;64.2
78448;SHT31;67742;51.972;5.682;2024-02-26T04:51:36;8.4;63.9
78448;SHT31;67742;51.972;5.682;2024-02-26T04:54:05;8.4;64.1
78448;SHT31;67742;51.972;5.682;2024-02-26T04:56:33;8.4;64.1
78448;SHT31;67742;51.972;5.682;2024-02-26T04:59:02;8.4;64.3
78448;SHT31;67742;51.972;5.682;2024-02-26T05:01:30;8.4;64.5
78448;SHT31;67742;51.972;5.682;2024-02-26T05:03:59;8.4;64.3
78448;SHT31;67742;51.972;5.682;2024-02-26T05:06:27;8.3;64.4
78448;SHT31;67742;51.972;5.682;2024-02-26T05:08:56;8.3;64.7
78448;SHT31;67742;51.972;5.682;2024-02-26T05:11:25;8.3;64.8
78448;SHT31;67742;51.972;5.682;2024-02-26T05:13:53;8.3;64.8
78448;SHT31;67742;51.972;5.682;2024-02-26T05:16:21;8.3;64.8
78448;SHT31;67742;51.972;5.682;2024-02-26T05:18:51;8.3;64.9
78448;SHT31;67742;51.972;5.682;2024-02-26T05:21:19;8.3;65.2
78448;SHT31;67742;51.972;5.682;2024-02-26T05:23:47;8.3;65.4
78448;SHT31;67742;51.972;5.682;2024-02-26T05:26:21;8.3;65.3
78448;SHT31;67742;51.972;5.682;2024-02-26T05:28:50;8.3;65.4
78448;SHT31;67742;51.972;5.682;2024-02-26T05:31:19;8.3;65.3
78448;SHT31;67742;51.972;5.682;2024-02-26T05:33:47;8.3;65.5
78448;SHT31;67742;51.972;5.682;2024-02-26T05:36:20;8.3;65.6
78448;SHT31;67742;51.972;5.682;2024-02-26T05:38:49;8.3;65.6
78448;SHT31;67742;51.972;5.682;2024-02-26T05:41:18;8.3;65.6
78448;SHT31;67742;51.972;5.682;2024-02-26T05:43:49;8.3;65.6
78448;SHT31;67742;51.972;5.682;2024-02-26T05:46:19;8.3;65.6
78448;SHT31;67742;51.972;5.682;2024-02-26T05:48:50;8.3;65.7
78448;SHT31;67742;51.972;5.682;2024-02-26T05:51:19;8.2;65.9
78448;SHT31;67742;51.972;5.682;2024-02-26T05:53:49;8.2;66.1
78448;SHT31;67742;51.972;5.682;2024-02-26T05:56:20;8.2;66.2
78448;SHT31;67742;51.972;5.682;2024-02-26T05:58:49;8.2;66.4
78448;SHT31;67742;51.972;5.682;2024-02-26T06:01:20;8.2;66.4
78448;SHT31;67742;51.972;5.682;2024-02-26T06:03:52;8.2;66.4
78448;SHT31;67742;51.972;5.682;2024-02-26T06:06:22;8.1;66.5
78448;SHT31;67742;51.972;5.682;2024-02-26T06:08:51;8.1;66.7
78448;SHT31;67742;51.972;5.682;2024-02-26T06:11:19;8.1;66.8
78448;SHT31;67742;51.972;5.682;2024-02-26T06:13:49;8.1;66.7
78448;SHT31;67742;51.972;5.682;2024-02-26T06:16:17;8.1;66.3
78448;SHT31;67742;51.972;5.682;2024-02-26T06:18:45;8.1;66.6
78448;SHT31;67742;51.972;5.682;2024-02-26T06:21:14;8.1;66.5
78448;SHT31;67742;51.972;5.682;2024-02-26T06:23:42;8.1;66.6
78448;SHT31;67742;51.972;5.682;2024-02-26T06:26:11;8.1;66.7
78448;SHT31;67742;51.972;5.682;2024-02-26T06:28:39;8.2;66.4
78448;SHT31;67742;51.972;5.682;2024-02-26T06:31:10;8.2;66.3
78448;SHT31;67742;51.972;5.682;2024-02-26T06:33:38;8.1;66.5
78448;SHT31;67742;51.972;5.682;2024-02-26T06:36:09;8.1;66.3
78448;SHT31;67742;51.972;5.682;2024-02-26T06:38:40;8.1;66.3
78448;SHT31;67742;51.972;5.682;2024-02-26T06:41:09;8.1;66.7
78448;SHT31;67742;51.972;5.682;2024-02-26T06:43:38;8.1;67.2
78448;SHT31;67742;51.972;5.682;2024-02-26T06:46:07;8.1;67.3
78448;SHT31;67742;51.972;5.682;2024-02-26T06:48:36;8.1;66.9
78448;SHT31;67742;51.972;5.682;2024-02-26T06:51:05;8.1;66.9
78448;SHT31;67742;51.972;5.682;2024-02-26T06:53:34;8.1;66.8
78448;SHT31;67742;51.972;5.682;2024-02-26T06:56:02;8.1;66.9
78448;SHT31;67742;51.972;5.682;2024-02-26T06:58:31;8.1;67.2
78448;SHT31;67742;51.972;5.682;2024-02-26T07:00:59;8.1;66.9
78448;SHT31;67742;51.972;5.682;2024-02-26T07:03:28;8.1;67.0
78448;SHT31;67742;51.972;5.682;2024-02-26T07:05:57;8.1;67.2
78448;SHT31;67742;51.972;5.682;2024-02-26T07:08:25;8.1;67.0
78448;SHT31;67742;51.972;5.682;2024-02-26T07:10:54;8.1;67.4
78448;SHT31;67742;51.972;5.682;2024-02-26T07:13:23;8.1;67.3
78448;SHT31;67742;51.972;5.682;2024-02-26T07:15:51;8.1;67.5
78448;SHT31;67742;51.972;5.682;2024-02-26T07:18:20;8.1;67.6
78448;SHT31;67742;51.972;5.682;2024-02-26T07:20:48;8.1;67.5
78448;SHT31;67742;51.972;5.682;2024-02-26T07:23:17;8.1;67.5
78448;SHT31;67742;51.972;5.682;2024-02-26T07:25:46;8.1;67.8
78448;SHT31;67742;51.972;5.682;2024-02-26T07:28:16;8.1;67.9
78448;SHT31;67742;51.972;5.682;2024-02-26T07:30:45;8.1;67.8
78448;SHT31;67742;51.972;5.682;2024-02-26T07:33:13;8.1;68.0
78448;SHT31;67742;51.972;5.682;2024-02-26T07:35:42;8.1;68.5
78448;SHT31;67742;51.972;5.682;2024-02-26T07:38:11;8.1;68.1
78448;SHT31;67742;51.972;5.682;2024-02-26T07:40:40;8.1;68.4
78448;SHT31;67742;51.972;5.682;2024-02-26T07:43:08;8.1;68.7
78448;SHT31;67742;51.972;5.682;2024-02-26T07:45:37;8.1;68.8
78448;SHT31;67742;51.972;5.682;2024-02-26T07:48:06;8.1;68.8
78448;SHT31;67742;51.972;5.682;2024-02-26T07:50:35;8.1;69.0
78448;SHT31;67742;51.972;5.682;2024-02-26T07:53:04;8.1;69.0
78448;SHT31;67742;51.972;5.682;2024-02-26T07:55:32;8.1;69.2
78448;SHT31;67742;51.972;5.682;2024-02-26T07:58:00;8.1;69.1
78448;SHT31;67742;51.972;5.682;2024-02-26T08:00:29;8.1;69.3
78448;SHT31;67742;51.972;5.682;2024-02-26T08:02:58;8.1;69.5
78448;SHT31;67742;51.972;5.682;2024-02-26T08:05:26;8.1;69.5
78448;SHT31;67742;51.972;5.682;2024-02-26T08:07:55;8.1;69.4
78448;SHT31;67742;51.972;5.682;2024-02-26T08:10:23;8.1;69.5
78448;SHT31;67742;51.972;5.682;2024-02-26T08:12:51;8.1;69.8
78448;SHT31;67742;51.972;5.682;2024-02-26T08:15:20;8.2;69.8
78448;SHT31;67742;51.972;5.682;2024-02-26T08:17:49;8.2;69.7
78448;SHT31;67742;51.972;5.682;2024-02-26T08:20:18;8.2;69.8
78448;SHT31;67742;51.972;5.682;2024-02-26T08:22:46;8.2;69.4
78448;SHT31;67742;51.972;5.682;2024-02-26T08:25:14;8.2;69.5
78448;SHT31;67742;51.972;5.682;2024-02-26T08:27:44;8.2;69.6
78448;SHT31;67742;51.972;5.682;2024-02-26T08:30:17;8.2;69.4
78448;SHT31;67742;51.972;5.682;2024-02-26T08:32:47;8.2;69.5
78448;SHT31;67742;51.972;5.682;2024-02-26T08:35:16;8.3;69.6
78448;SHT31;67742;51.972;5.682;2024-02-26T08:37:46;8.3;69.6
78448;SHT31;67742;51.972;5.682;2024-02-26T08:40:15;8.3;69.4
78448;SHT31;67742;51.972;5.682;2024-02-26T08:42:46;8.3;69.2
78448;SHT31;67742;51.972;5.682;2024-02-26T08:45:15;8.3;69.4
78448;SHT31;67742;51.972;5.682;2024-02-26T08:47:46;8.3;69.5
78448;SHT31;67742;51.972;5.682;2024-02-26T08:50:15;8.3;69.6
78448;SHT31;67742;51.972;5.682;2024-02-26T08:52:44;8.2;70.0
78448;SHT31;67742;51.972;5.682;2024-02-26T08:55:15;8.3;70.2
78448;SHT31;67742;51.972;5.682;2024-02-26T08:57:43;8.3;70.1
78448;SHT31;67742;51.972;5.682;2024-02-26T09:00:16;8.3;70.3
78448;SHT31;67742;51.972;5.682;2024-02-26T09:02:46;8.3;70.6
78448;SHT31;67742;51.972;5.682;2024-02-26T09:05:16;8.3;70.4
78448;SHT31;67742;51.972;5.682;2024-02-26T09:07:44;8.3;70.5
78448;SHT31;67742;51.972;5.682;2024-02-26T09:10:13;8.3;70.3
78448;SHT31;67742;51.972;5.682;2024-02-26T09:12:44;8.3;70.9
78448;SHT31;67742;51.972;5.682;2024-02-26T09:15:12;8.4;70.6
78448;SHT31;67742;51.972;5.682;2024-02-26T09:17:41;8.4;70.6
78448;SHT31;67742;51.972;5.682;2024-02-26T09:20:13;8.4;70.7
78448;SHT31;67742;51.972;5.682;2024-02-26T09:22:46;8.4;70.5
78448;SHT31;67742;51.972;5.682;2024-02-26T09:25:16;8.4;70.8
78448;SHT31;67742;51.972;5.682;2024-02-26T09:27:46;8.4;70.5
78448;SHT31;67742;51.972;5.682;2024-02-26T09:30:16;8.4;70.2
78448;SHT31;67742;51.972;5.682;2024-02-26T09:32:49;8.5;70.3
78448;SHT31;67742;51.972;5.682;2024-02-26T09:35:18;8.5;70.7
78448;SHT31;67742;51.972;5.682;2024-02-26T09:37:47;8.5;70.5
78448;SHT31;67742;51.972;5.682;2024-02-26T09:40:17;8.5;70.4
78448;SHT31;67742;51.972;5.682;2024-02-26T09:42:46;8.5;70.2
78448;SHT31;67742;51.972;5.682;2024-02-26T09:45:18;8.5;70.2
78448;SHT31;67742;51.972;5.682;2024-02-26T09:47:48;8.5;70.4
78448;SHT31;67742;51.972;5.682;2024-02-26T09:50:21;8.5;69.6
78448;SHT31;67742;51.972;5.682;2024-02-26T09:52:51;8.5;70.0
78448;SHT31;67742;51.972;5.682;2024-02-26T09:55:21;8.5;70.4
78448;SHT31;67742;51.972;5.682;2024-02-26T09:57:51;8.5;70.6
78448;SHT31;67742;51.972;5.682;2024-02-26T10:00:22;8.5;70.2
78448;SHT31;67742;51.972;5.682;2024-02-26T10:02:51;8.5;70.1
78448;SHT31;67742;51.972;5.682;2024-02-26T10:05:23;8.5;70.4
78448;SHT31;67742;51.972;5.682;2024-02-26T10:07:54;8.5;70.6
78448;SHT31;67742;51.972;5.682;2024-02-26T10:10:24;8.5;70.6
78448;SHT31;67742;51.972;5.682;2024-02-26T10:12:54;8.6;70.4
78448;SHT31;67742;51.972;5.682;2024-02-26T10:15:22;8.6;70.4
78448;SHT31;67742;51.972;5.682;2024-02-26T10:17:51;8.6;70.3
78448;SHT31;67742;51.972;5.682;2024-02-26T10:20:22;8.6;70.3
78448;SHT31;67742;51.972;5.682;2024-02-26T10:22:52;8.6;70.4
78448;SHT31;67742;51.972;5.682;2024-02-26T10:25:21;8.6;70.2
78448;SHT31;67742;51.972;5.682;2024-02-26T10:27:51;8.6;70.3
78448;SHT31;67742;51.972;5.682;2024-02-26T10:30:22;8.6;70.5
78448;SHT31;67742;51.972;5.682;2024-02-26T10:32:53;8.6;70.3
78448;SHT31;67742;51.972;5.682;2024-02-26T10:35:22;8.6;70.2
78448;SHT31;67742;51.972;5.682;2024-02-26T10:37:52;8.6;70.2
78448;SHT31;67742;51.972;5.682;2024-02-26T10:40:21;8.6;70.5
78448;SHT31;67742;51.972;5.682;2024-02-26T10:42:50;8.7;70.1
78448;SHT31;67742;51.972;5.682;2024-02-26T10:45:19;8.7;70.4
78448;SHT31;67742;51.972;5.682;2024-02-26T10:47:49;8.7;70.1
78448;SHT31;67742;51.972;5.682;2024-02-26T10:50:20;8.7;70.5
78448;SHT31;67742;51.972;5.682;2024-02-26T10:52:49;8.7;69.9
78448;SHT31;67742;51.972;5.682;2024-02-26T10:55:23;8.7;70.1
78448;SHT31;67742;51.972;5.682;2024-02-26T10:57:53;8.7;69.6
78448;SHT31;67742;51.972;5.682;2024-02-26T11:00:23;8.7;69.6
78448;SHT31;67742;51.972;5.682;2024-02-26T11:02:52;8.7;69.9
78448;SHT31;67742;51.972;5.682;2024-02-26T11:05:22;8.7;70.3
78448;SHT31;67742;51.972;5.682;2024-02-26T11:07:52;8.7;70.2
78448;SHT31;67742;51.972;5.682;2024-02-26T11:10:21;8.7;69.9
78448;SHT31;67742;51.972;5.682;2024-02-26T11:12:54;8.7;70.2
78448;SHT31;67742;51.972;5.682;2024-02-26T11:15:24;8.7;70.0
78448;SHT31;67742;51.972;5.682;2024-02-26T11:17:56;8.7;70.2
78448;SHT31;67742;51.972;5.682;2024-02-26T11:20:28;8.7;70.5
78448;SHT31;67742;51.972;5.682;2024-02-26T11:22:57;8.8;70.4
78448;SHT31;67742;51.972;5.682;2024-02-26T11:25:26;8.8;70.4
78448;SHT31;67742;51.972;5.682;2024-02-26T11:27:59;8.8;70.5
78448;SHT31;67742;51.972;5.682;2024-02-26T11:30:34;8.8;69.9
78448;SHT31;67742;51.972;5.682;2024-02-26T11:33:09;8.8;69.9
78448;SHT31;67742;51.972;5.682;2024-02-26T11:35:39;8.8;69.8
78448;SHT31;67742;51.972;5.682;2024-02-26T11:38:08;8.8;69.8
78448;SHT31;67742;51.972;5.682;2024-02-26T11:40:44;8.8;70.1
78448;SHT31;67742;51.972;5.682;2024-02-26T11:43:12;8.8;70.3
78448;SHT31;67742;51.972;5.682;2024-02-26T11:45:55;8.8;70.5
78448;SHT31;67742;51.972;5.682;2024-02-26T11:48:29;8.8;70.3
78448;SHT31;67742;51.972;5.682;2024-02-26T11:50:58;8.8;70.4
78448;SHT31;67742;51.972;5.682;2024-02-26T11:53:29;8.8;70.4
78448;SHT31;67742;51.972;5.682;2024-02-26T11:58:16;8.8;70.4
78448;SHT31;67742;51.972;5.682;2024-02-26T12:00:45;8.8;70.2
78448;SHT31;67742;51.972;5.682;2024-02-26T12:03:15;8.8;70.5
78448;SHT31;67742;51.972;5.682;2024-02-26T12:05:44;8.8;70.4
78448;SHT31;67742;51.972;5.682;2024-02-26T12:08:12;8.8;70.4
78448;SHT31;67742;51.972;5.682;2024-02-26T12:10:43;8.8;70.6
78448;SHT31;67742;51.972;5.682;2024-02-26T12:13:14;8.8;70.4
78448;SHT31;67742;51.972;5.682;2024-02-26T12:15:44;8.8;70.4
78448;SHT31;67742;51.972;5.682;2024-02-26T12:18:18;8.8;70.6
78448;SHT31;67742;51.972;5.682;2024-02-26T12:20:48;8.8;70.4
78448;SHT31;67742;51.972;5.682;2024-02-26T12:23:22;8.8;70.8
78448;SHT31;67742;51.972;5.682;2024-02-26T12:25:50;8.8;70.6
78448;SHT31;67742;51.972;5.682;2024-02-26T12:28:18;8.9;70.0
78448;SHT31;67742;51.972;5.682;2024-02-26T12:30:47;8.9;70.0
78448;SHT31;67742;51.972;5.682;2024-02-26T12:33:16;8.9;70.2
78448;SHT31;67742;51.972;5.682;2024-02-26T12:35:45;8.9;70.3
78448;SHT31;67742;51.972;5.682;2024-02-26T12:38:17;8.9;70.6
78448;SHT31;67742;51.972;5.682;2024-02-26T12:40:45;8.9;70.5
78448;SHT31;67742;51.972;5.682;2024-02-26T12:43:15;8.9;70.8
78448;SHT31;67742;51.972;5.682;2024-02-26T12:45:44;8.9;70.7
78448;SHT31;67742;51.972;5.682;2024-02-26T12:48:14;9.0;70.4
78448;SHT31;67742;51.972;5.682;2024-02-26T12:50:46;9.0;70.2
78448;SHT31;67742;51.972;5.682;2024-02-26T12:53:15;9.0;69.9
78448;SHT31;67742;51.972;5.682;2024-02-26T12:55:47;9.0;69.9
78448;SHT31;67742;51.972;5.682;2024-02-26T12:58:17;9.0;70.4
78448;SHT31;67742;51.972;5.682;2024-02-26T13:00:47;9.1;69.7
78448;SHT31;67742;51.972;5.682;2024-02-26T13:03:17;9.1;69.6
78448;SHT31;67742;51.972;5.682;2024-02-26T13:05:46;9.1;69.6
78448;SHT31;67742;51.972;5.682;2024-02-26T13:08:19;9.1;69.9
78448;SHT31;67742;51.972;5.682;2024-02-26T13:10:49;9.1;69.7
78448;SHT31;67742;51.972;5.682;2024-02-26T13:13:19;9.1;69.7
78448;SHT31;67742;51.972;5.682;2024-02-26T13:15:48;9.1;69.8
78448;SHT31;67742;51.972;5.682;2024-02-26T13:18:16;9.2;69.5
78448;SHT31;67742;51.972;5.682;2024-02-26T13:20:45;9.2;69.4
78448;SHT31;67742;51.972;5.682;2024-02-26T13:23:13;9.2;69.7
78448;SHT31;67742;51.972;5.682;2024-02-26T13:25:42;9.2;69.6
78448;SHT31;67742;51.972;5.682;2024-02-26T13:28:14;9.2;69.6
78448;SHT31;67742;51.972;5.682;2024-02-26T13:30:52;9.2;69.3
78448;SHT31;67742;51.972;5.682;2024-02-26T13:33:26;9.2;69.4
78448;SHT31;67742;51.972;5.682;2024-02-26T13:35:54;9.2;69.6
78448;SHT31;67742;51.972;5.682;2024-02-26T13:38:24;9.2;69.2
78448;SHT31;67742;51.972;5.682;2024-02-26T13:40:53;9.2;69.6
78448;SHT31;67742;51.972;5.682;2024-02-26T13:43:21;9.3;69.7
78448;SHT31;67742;51.972;5.682;2024-02-26T13:45:50;9.3;69.7
78448;SHT31;67742;51.972;5.682;2024-02-26T13:48:19;9.3;69.7
78448;SHT31;67742;51.972;5.682;2024-02-26T13:50:49;9.3;69.7
78448;SHT31;67742;51.972;5.682;2024-02-26T13:53:17;9.3;69.4
78448;SHT31;67742;51.972;5.682;2024-02-26T13:55:46;9.3;69.3
78448;SHT31;67742;51.972;5.682;2024-02-26T13:58:15;9.3;69.6
78448;SHT31;67742;51.972;5.682;2024-02-26T14:00:48;9.3;69.7
78448;SHT31;67742;51.972;5.682;2024-02-26T14:03:17;9.3;69.7
78448;SHT31;67742;51.972;5.682;2024-02-26T14:05:45;9.3;69.6
78448;SHT31;67742;51.972;5.682;2024-02-26T14:08:15;9.3;69.6
78448;SHT31;67742;51.972;5.682;2024-02-26T14:10:43;9.3;69.5
78448;SHT31;67742;51.972;5.682;2024-02-26T14:13:12;9.4;69.4
78448;SHT31;67742;51.972;5.682;2024-02-26T14:15:41;9.4;69.3
78448;SHT31;67742;51.972;5.682;2024-02-26T14:18:11;9.4;69.2
78448;SHT31;67742;51.972;5.682;2024-02-26T14:20:40;9.4;69.3
78448;SHT31;67742;51.972;5.682;2024-02-26T14:23:08;9.4;69.4
78448;SHT31;67742;51.972;5.682;2024-02-26T14:25:37;9.4;69.1
78448;SHT31;67742;51.972;5.682;2024-02-26T14:28:06;9.5;69.1
78448;SHT31;67742;51.972;5.682;2024-02-26T14:30:35;9.5;69.0
78448;SHT31;67742;51.972;5.682;2024-02-26T14:33:04;9.5;68.7
78448;SHT31;67742;51.972;5.682;2024-02-26T14:35:33;9.5;68.5
78448;SHT31;67742;51.972;5.682;2024-02-26T14:38:01;9.6;68.3
78448;SHT31;67742;51.972;5.682;2024-02-26T14:40:30;9.6;68.5
78448;SHT31;67742;51.972;5.682;2024-02-26T14:42:58;9.6;68.7
78448;SHT31;67742;51.972;5.682;2024-02-26T14:45:30;9.6;68.7
78448;SHT31;67742;51.972;5.682;2024-02-26T14:47:59;9.6;68.5
78448;SHT31;67742;51.972;5.682;2024-02-26T14:50:28;9.6;68.6
78448;SHT31;67742;51.972;5.682;2024-02-26T14:52:57;9.6;68.4
78448;SHT31;67742;51.972;5.682;2024-02-26T14:55:26;9.7;68.1
78448;SHT31;67742;51.972;5.682;2024-02-26T14:57:55;9.7;67.6
78448;SHT31;67742;51.972;5.682;2024-02-26T15:00:24;9.7;68.1
78448;SHT31;67742;51.972;5.682;2024-02-26T15:02:52;9.7;67.8
78448;SHT31;67742;51.972;5.682;2024-02-26T15:05:22;9.7;67.6
78448;SHT31;67742;51.972;5.682;2024-02-26T15:07:50;9.7;67.4
78448;SHT31;67742;51.972;5.682;2024-02-26T15:10:19;9.8;67.0
78448;SHT31;67742;51.972;5.682;2024-02-26T15:12:47;9.8;67.2
78448;SHT31;67742;51.972;5.682;2024-02-26T15:15:17;9.8;67.6
78448;SHT31;67742;51.972;5.682;2024-02-26T15:17:46;9.8;67.1
78448;SHT31;67742;51.972;5.682;2024-02-26T15:20:16;9.8;66.7
78448;SHT31;67742;51.972;5.682;2024-02-26T15:22:44;9.8;66.7
78448;SHT31;67742;51.972;5.682;2024-02-26T15:25:13;9.8;66.3
78448;SHT31;67742;51.972;5.682;2024-02-26T15:27:42;9.8;66.3
78448;SHT31;67742;51.972;5.682;2024-02-26T15:30:12;9.8;66.3
78448;SHT31;67742;51.972;5.682;2024-02-26T15:32:42;9.8;66.5
78448;SHT31;67742;51.972;5.682;2024-02-26T15:35:14;9.8;66.3
78448;SHT31;67742;51.972;5.682;2024-02-26T15:37:42;9.8;66.0
78448;SHT31;67742;51.972;5.682;2024-02-26T15:40:11;9.8;66.2
78448;SHT31;67742;51.972;5.682;2024-02-26T15:42:40;9.8;66.3
78448;SHT31;67742;51.972;5.682;2024-02-26T15:45:09;9.8;65.9
78448;SHT31;67742;51.972;5.682;2024-02-26T15:47:38;9.8;66.1
78448;SHT31;67742;51.972;5.682;2024-02-26T15:50:08;9.8;66.2
78448;SHT31;67742;51.972;5.682;2024-02-26T15:52:38;9.8;66.4
78448;SHT31;67742;51.972;5.682;2024-02-26T15:55:07;9.8;66.4
78448;SHT31;67742;51.972;5.682;2024-02-26T15:57:36;9.8;66.6
78448;SHT31;67742;51.972;5.682;2024-02-26T16:00:06;9.8;66.2
78448;SHT31;67742;51.972;5.682;2024-02-26T16:02:36;9.9;65.6
78448;SHT31;67742;51.972;5.682;2024-02-26T16:05:07;9.9;65.5
78448;SHT31;67742;51.972;5.682;2024-02-26T16:07:41;9.9;65.4
78448;SHT31;67742;51.972;5.682;2024-02-26T16:10:12;9.9;65.6
78448;SHT31;67742;51.972;5.682;2024-02-26T16:12:44;9.9;64.9
78448;SHT31;67742;51.972;5.682;2024-02-26T16:15:15;9.9;65.2
78448;SHT31;67742;51.972;5.682;2024-02-26T16:17:45;9.9;65.2
78448;SHT31;67742;51.972;5.682;2024-02-26T16:20:19;9.9;65.0
78448;SHT31;67742;51.972;5.682;2024-02-26T16:22:51;9.9;65.1
78448;SHT31;67742;51.972;5.682;2024-02-26T16:25:21;9.8;65.3
78448;SHT31;67742;51.972;5.682;2024-02-26T16:27:50;9.8;65.0
78448;SHT31;67742;51.972;5.682;2024-02-26T16:30:19;9.8;64.9
78448;SHT31;67742;51.972;5.682;2024-02-26T16:32:47;9.8;65.1
78448;SHT31;67742;51.972;5.682;2024-02-26T16:35:16;9.8;64.7